createdAt,value
2023-04-19T00:02:26.029Z,7.02
2023-04-19T00:05:10.142Z,7.01
2023-04-19T00:07:54.326Z,6.99
2023-04-19T00:10:37.604Z,6.97
2023-04-19T00:13:20.605Z,6.92
2023-04-19T00:16:03.540Z,6.90
2023-04-19T00:18:46.778Z,6.94
2023-04-19T00:21:29.571Z,7.01
2023-04-19T00:24:14.048Z,7.07
2023-04-19T00:26:57.368Z,7.06
2023-04-19T00:29:40.147Z,7.05
2023-04-19T00:32:22.975Z,7.03
2023-04-19T00:35:07.520Z,7.03
2023-04-19T00:37:50.345Z,7.05
2023-04-19T00:40:34.805Z,7.05
2023-04-19T00:43:21.130Z,7.03
2023-04-19T00:46:04.051Z,7.02
2023-04-19T00:48:46.974Z,6.99
2023-04-19T00:51:29.853Z,6.97
2023-04-19T00:54:14.587Z,6.96
2023-04-19T00:56:58.900Z,6.93
2023-04-19T00:59:41.851Z,6.95
2023-04-19T01:02:24.786Z,6.98
2023-04-19T01:05:08.602Z,7.01
2023-04-19T01:07:51.505Z,7.01
2023-04-19T01:10:34.537Z,7.01
2023-04-19T01:13:18.672Z,7.01
2023-04-19T01:16:01.857Z,6.97
2023-04-19T01:18:45.000Z,6.95
2023-04-19T01:21:29.401Z,6.91
2023-04-19T01:24:13.898Z,6.92
2023-04-19T01:26:57.153Z,6.90
2023-04-19T01:29:40.122Z,6.79
2023-04-19T01:32:22.917Z,6.69
2023-04-19T01:35:06.568Z,6.65
2023-04-19T01:37:50.654Z,6.56
2023-04-19T01:40:35.024Z,6.51
2023-04-19T01:43:18.957Z,6.48
2023-04-19T01:46:01.756Z,6.49
2023-04-19T01:48:44.588Z,6.37
2023-04-19T01:51:27.398Z,6.34
2023-04-19T01:54:10.273Z,6.32
2023-04-19T01:56:54.402Z,6.28
2023-04-19T01:59:37.221Z,6.26
2023-04-19T02:02:20.161Z,6.24
2023-04-19T02:05:03.580Z,6.21
2023-04-19T02:07:46.396Z,6.18
2023-04-19T02:10:29.181Z,6.18
2023-04-19T02:13:13.413Z,6.16
2023-04-19T02:15:56.189Z,6.16
2023-04-19T02:18:39.409Z,6.18
2023-04-19T02:21:22.228Z,6.23
2023-04-19T02:24:05.212Z,6.22
2023-04-19T02:26:48.015Z,6.13
2023-04-19T02:29:33.666Z,6.07
2023-04-19T02:32:16.464Z,6.04
2023-04-19T02:34:59.232Z,5.99
2023-04-19T02:37:43.324Z,5.97
2023-04-19T02:40:26.188Z,5.96
2023-04-19T02:43:08.975Z,5.95
2023-04-19T02:45:53.412Z,5.95
2023-04-19T02:48:37.323Z,5.98
2023-04-19T02:51:20.215Z,5.97
2023-04-19T02:54:03.019Z,5.97
2023-04-19T02:56:45.945Z,5.98
2023-04-19T02:59:28.917Z,5.97
2023-04-19T03:02:16.241Z,5.94
2023-04-19T03:04:59.269Z,5.91
2023-04-19T03:07:44.280Z,5.90
2023-04-19T03:10:27.444Z,5.87
2023-04-19T03:13:10.603Z,5.85
2023-04-19T03:15:53.760Z,5.85
2023-04-19T03:18:40.099Z,5.87
2023-04-19T03:21:27.143Z,5.88
2023-04-19T03:24:10.278Z,5.89
2023-04-19T03:26:56.583Z,5.90
2023-04-19T03:29:43.000Z,5.92
2023-04-19T03:32:27.960Z,5.96
2023-04-19T03:35:12.268Z,5.98
2023-04-19T03:37:55.283Z,6.00
2023-04-19T03:40:38.985Z,6.01
2023-04-19T03:43:25.134Z,6.01
2023-04-19T03:46:08.001Z,5.97
2023-04-19T03:48:51.262Z,5.94
2023-04-19T03:51:36.733Z,5.88
2023-04-19T03:54:19.576Z,5.81
2023-04-19T03:57:02.535Z,5.81
2023-04-19T03:59:45.620Z,5.85
2023-04-19T04:02:28.572Z,5.88
2023-04-19T04:05:11.540Z,5.96
2023-04-19T04:07:56.344Z,5.95
2023-04-19T04:10:39.357Z,5.99
2023-04-19T04:13:22.318Z,6.00
2023-04-19T04:16:16.795Z,6.04
2023-04-19T04:19:00.367Z,6.04
2023-04-19T04:21:45.842Z,6.05
2023-04-19T04:24:32.903Z,6.06
2023-04-19T04:27:39.310Z,6.05
2023-04-19T04:30:27.978Z,6.04
2023-04-19T04:33:12.963Z,6.04
2023-04-19T04:35:59.177Z,6.03
2023-04-19T04:38:46.780Z,6.02
2023-04-19T04:41:31.372Z,6.05
2023-04-19T04:44:15.450Z,6.06
2023-04-19T04:47:00.365Z,6.10
2023-04-19T04:49:45.672Z,6.14
2023-04-19T04:52:28.798Z,6.15
2023-04-19T04:55:22.161Z,6.19
2023-04-19T04:58:06.485Z,6.21
2023-04-19T05:01:19.641Z,6.23
2023-04-19T05:04:04.210Z,6.25
2023-04-19T05:06:48.775Z,6.29
2023-04-19T05:09:37.548Z,6.37
2023-04-19T05:12:20.796Z,6.41
2023-04-19T05:15:05.664Z,6.47
2023-04-19T05:17:49.817Z,6.50
2023-04-19T05:20:33.958Z,6.57
2023-04-19T05:23:30.364Z,6.60
2023-04-19T05:26:15.406Z,6.65
2023-04-19T05:29:00.040Z,6.72
2023-04-19T05:32:04.051Z,6.76
2023-04-19T05:34:50.131Z,6.81
2023-04-19T05:37:33.361Z,6.84
2023-04-19T05:40:16.248Z,6.88
2023-04-19T05:42:59.177Z,6.93
2023-04-19T05:45:42.105Z,6.97
2023-04-19T05:48:26.411Z,7.02
2023-04-19T05:51:28.307Z,7.05
2023-04-19T05:54:34.427Z,7.10
2023-04-19T05:57:17.663Z,7.07
2023-04-19T06:03:00.915Z,7.13
2023-04-19T06:05:45.356Z,7.17
2023-04-19T06:08:28.203Z,7.21
2023-04-19T06:11:23.003Z,7.23
2023-04-19T06:14:09.753Z,7.23
2023-04-19T06:16:52.689Z,7.25
2023-04-19T06:19:36.657Z,7.25
2023-04-19T06:22:20.863Z,7.26
2023-04-19T06:25:03.758Z,7.25
2023-04-19T06:27:46.569Z,7.24
2023-04-19T06:30:29.561Z,7.24
2023-04-19T06:33:12.401Z,7.25
2023-04-19T06:35:55.180Z,7.26
2023-04-19T06:38:39.944Z,7.24
2023-04-19T06:41:23.304Z,7.23
2023-04-19T06:44:06.519Z,7.23
2023-04-19T06:46:49.361Z,7.23
2023-04-19T06:49:32.589Z,7.22
2023-04-19T06:52:15.518Z,7.22
2023-04-19T06:54:59.635Z,7.21
2023-04-19T06:57:42.586Z,7.23
2023-04-19T07:00:25.505Z,7.23
2023-04-19T07:03:08.454Z,7.23
2023-04-19T07:05:52.764Z,7.24
2023-04-19T07:08:48.753Z,7.27
2023-04-19T07:11:34.687Z,7.26
2023-04-19T07:14:19.274Z,7.27
2023-04-19T07:17:02.249Z,7.30
2023-04-19T07:19:48.507Z,7.29
2023-04-19T07:22:31.419Z,7.28
2023-04-19T07:25:15.324Z,7.28
2023-04-19T07:27:59.520Z,7.28
2023-04-19T07:30:45.945Z,7.28
2023-04-19T07:33:29.606Z,7.29
2023-04-19T07:36:12.479Z,7.27
2023-04-19T07:38:55.392Z,7.27
2023-04-19T07:41:39.242Z,7.25
2023-04-19T07:44:23.386Z,7.28
2023-04-19T07:47:06.395Z,7.33
2023-04-19T07:49:52.945Z,7.32
2023-04-19T07:52:35.973Z,7.26
2023-04-19T07:55:18.851Z,7.26
2023-04-19T07:58:02.063Z,7.27
2023-04-19T08:00:46.293Z,7.24
2023-04-19T08:03:29.684Z,7.25
2023-04-19T08:06:14.280Z,7.27
2023-04-19T08:08:57.088Z,7.29
2023-04-19T08:11:40.103Z,7.33
2023-04-19T08:14:34.708Z,7.34
2023-04-19T08:17:28.652Z,7.30
2023-04-19T08:20:16.131Z,7.28
2023-04-19T08:23:00.575Z,7.28
2023-04-19T08:25:47.650Z,7.26
2023-04-19T08:28:30.589Z,7.27
2023-04-19T08:31:13.372Z,7.28
2023-04-19T08:33:58.545Z,7.28
2023-04-19T08:36:51.617Z,7.27
2023-04-19T08:39:39.011Z,7.28
2023-04-19T08:42:33.131Z,7.28
2023-04-19T08:48:11.709Z,7.22
2023-04-19T08:51:04.951Z,7.19
2023-04-19T08:53:50.314Z,7.19
2023-04-19T08:56:35.705Z,7.24
2023-04-19T08:59:19.319Z,7.28
2023-04-19T09:02:03.284Z,7.33
2023-04-19T09:04:46.335Z,7.39
2023-04-19T09:07:31.203Z,7.43
2023-04-19T09:10:16.028Z,7.48
2023-04-19T09:13:02.686Z,7.49
2023-04-19T09:15:45.944Z,7.51
2023-04-19T09:18:31.447Z,7.47
2023-04-19T09:21:28.773Z,7.46
2023-04-19T09:24:13.154Z,7.44
2023-04-19T09:26:57.896Z,7.43
2023-04-19T09:29:40.565Z,7.37
2023-04-19T09:32:23.741Z,7.33
2023-04-19T09:35:07.770Z,7.32
2023-04-19T09:38:06.272Z,7.32
2023-04-19T09:40:51.222Z,7.37
2023-04-19T09:43:57.972Z,7.38
2023-04-19T09:46:38.626Z,7.40
2023-04-19T09:49:33.808Z,7.42
2023-04-19T09:52:27.049Z,7.43
2023-04-19T09:55:22.095Z,7.46
2023-04-19T09:58:06.858Z,7.47
2023-04-19T10:00:55.076Z,7.48
2023-04-19T10:03:48.837Z,7.49
2023-04-19T10:06:51.792Z,7.48
2023-04-19T10:09:45.874Z,7.47
2023-04-19T10:12:54.879Z,7.47
2023-04-19T10:15:51.073Z,7.45
2023-04-19T10:18:37.204Z,7.40
2023-04-19T10:21:21.602Z,7.32
2023-04-19T10:24:05.668Z,7.24
2023-04-19T10:27:11.022Z,7.21
2023-04-19T10:29:57.039Z,7.15
2023-04-19T10:32:43.270Z,7.12
2023-04-19T10:35:29.295Z,7.09
2023-04-19T10:38:13.335Z,7.10
2023-04-19T10:41:00.190Z,7.03
2023-04-19T10:43:46.220Z,6.95
2023-04-19T10:46:41.060Z,6.91
2023-04-19T10:49:25.703Z,6.88
2023-04-19T10:52:27.364Z,6.86
2023-04-19T10:55:12.557Z,6.90
2023-04-19T10:58:06.263Z,6.92
2023-04-19T11:00:49.044Z,6.92
2023-04-19T11:03:53.171Z,6.99
2023-04-19T11:06:38.390Z,7.06
2023-04-19T11:09:23.484Z,7.10
2023-04-19T11:12:08.797Z,7.14
2023-04-19T11:14:54.382Z,6.95
2023-04-19T11:17:38.676Z,6.84
2023-04-19T11:20:25.264Z,6.74
2023-04-19T11:23:18.772Z,6.69
2023-04-19T11:26:01.557Z,6.61
2023-04-19T11:28:45.812Z,6.54
2023-04-19T11:31:28.691Z,6.47
2023-04-19T11:34:11.482Z,6.45
2023-04-19T11:36:54.320Z,6.47
2023-04-19T11:39:47.995Z,6.46
2023-04-19T11:42:31.053Z,6.38
2023-04-19T11:45:30.461Z,6.31
2023-04-19T11:48:16.267Z,6.28
2023-04-19T11:50:59.791Z,6.31
2023-04-19T11:53:42.839Z,6.33
2023-04-19T11:56:27.088Z,6.39
2023-04-19T11:59:10.556Z,6.43
2023-04-19T12:01:53.309Z,6.48
2023-04-19T12:04:36.529Z,6.51
2023-04-19T12:07:19.446Z,6.47
2023-04-19T12:10:10.249Z,6.25
2023-04-19T12:12:54.421Z,6.20
2023-04-19T12:15:43.641Z,6.10
2023-04-19T12:18:27.285Z,6.01
2023-04-19T12:21:10.116Z,6.01
2023-04-19T12:23:55.546Z,5.87
2023-04-19T12:26:38.414Z,5.92
2023-04-19T12:29:22.570Z,5.94
2023-04-19T12:32:06.298Z,6.00
2023-04-19T12:34:49.126Z,6.07
2023-04-19T12:37:31.888Z,6.05
2023-04-19T12:40:15.733Z,5.91
2023-04-19T12:42:58.531Z,5.97
2023-04-19T12:45:42.686Z,5.95
2023-04-19T12:48:25.516Z,6.03
2023-04-19T12:51:08.410Z,6.16
2023-04-19T12:53:51.603Z,6.26
2023-04-19T12:56:34.902Z,6.33
2023-04-19T12:59:18.314Z,6.41
2023-04-19T13:02:02.864Z,6.43
2023-04-19T13:04:46.083Z,6.47
2023-04-19T13:07:29.555Z,6.53
2023-04-19T13:10:12.510Z,6.62
2023-04-19T13:12:55.436Z,6.64
2023-04-19T13:15:38.387Z,6.69
2023-04-19T13:18:23.287Z,6.65
2023-04-19T13:21:08.301Z,6.75
2023-04-19T13:23:51.663Z,6.78
2023-04-19T13:26:35.179Z,6.79
2023-04-19T13:29:18.016Z,6.79
2023-04-19T13:32:00.987Z,6.72
2023-04-19T13:34:45.144Z,6.78
2023-04-19T13:37:27.976Z,6.79
2023-04-19T13:40:18.651Z,6.80
2023-04-19T13:43:03.235Z,6.82
2023-04-19T13:45:46.193Z,6.80
2023-04-19T13:48:29.703Z,6.76
2023-04-19T13:51:13.821Z,6.75
2023-04-19T13:53:56.589Z,6.78
2023-04-19T13:56:40.463Z,6.82
2023-04-19T13:59:26.256Z,6.87
2023-04-19T14:02:09.875Z,6.89
2023-04-19T14:04:52.731Z,6.89
2023-04-19T14:07:36.893Z,6.98
2023-04-19T14:10:20.305Z,7.07
2023-04-19T14:13:03.156Z,7.13
2023-04-19T14:15:46.477Z,7.17
2023-04-19T14:18:29.287Z,7.26
2023-04-19T14:21:12.119Z,7.35
2023-04-19T14:23:56.717Z,7.38
2023-04-19T14:26:39.376Z,7.44
2023-04-19T14:29:22.249Z,7.51
2023-04-19T14:32:17.059Z,7.55
2023-04-19T14:35:08.388Z,7.36
2023-04-19T14:37:51.234Z,7.33
2023-04-19T14:40:35.449Z,7.33
2023-04-19T14:43:18.272Z,7.35
2023-04-19T14:46:01.123Z,7.40
2023-04-19T14:48:43.938Z,7.44
2023-04-19T14:51:27.790Z,7.40
2023-04-19T14:54:10.752Z,7.35
2023-04-19T14:56:54.843Z,7.36
2023-04-19T14:59:37.656Z,7.37
2023-04-19T15:02:20.532Z,7.38
2023-04-19T15:05:03.598Z,7.39
2023-04-19T15:07:46.619Z,7.20
2023-04-19T15:10:29.414Z,7.10
2023-04-19T15:13:13.523Z,7.09
2023-04-19T15:15:57.379Z,7.06
2023-04-19T15:18:40.573Z,7.01
2023-04-19T15:21:24.803Z,6.97
2023-04-19T15:24:08.596Z,6.94
2023-04-19T15:26:51.378Z,6.94
2023-04-19T15:29:36.337Z,7.01
2023-04-19T15:32:19.413Z,7.02
2023-04-19T15:35:02.207Z,7.05
2023-04-19T15:37:45.252Z,7.03
2023-04-19T15:40:30.034Z,7.02
2023-04-19T15:43:12.906Z,7.02
2023-04-19T15:45:57.123Z,6.95
2023-04-19T15:48:39.926Z,6.92
2023-04-19T15:51:22.752Z,6.94
2023-04-19T15:54:06.250Z,6.96
2023-04-19T15:56:49.030Z,6.97
2023-04-19T15:59:32.209Z,7.03
2023-04-19T16:02:16.786Z,7.07
2023-04-19T16:04:59.794Z,7.05
2023-04-19T16:07:43.577Z,7.02
2023-04-19T16:10:26.349Z,6.98
2023-04-19T16:13:09.141Z,6.92
2023-04-19T16:15:51.941Z,6.87
2023-04-19T16:18:36.160Z,6.85
2023-04-19T16:21:18.973Z,6.82
2023-04-19T16:24:01.832Z,6.83
2023-04-19T16:26:44.645Z,6.83
2023-04-19T16:29:27.931Z,6.84
2023-04-19T16:32:10.961Z,6.81
2023-04-19T16:34:55.086Z,6.82
2023-04-19T16:37:38.243Z,6.80
2023-04-19T16:40:22.585Z,6.78
2023-04-19T16:43:06.481Z,6.77
2023-04-19T16:45:49.399Z,6.75
2023-04-19T16:48:32.198Z,6.78
2023-04-19T16:51:16.326Z,6.82
2023-04-19T16:53:59.154Z,6.80
2023-04-19T16:56:41.926Z,6.79
2023-04-19T16:59:24.698Z,6.80
2023-04-19T17:02:08.728Z,6.83
2023-04-19T17:04:51.928Z,6.82
2023-04-19T17:07:36.698Z,6.78
2023-04-19T17:10:19.302Z,6.75
2023-04-19T17:13:02.091Z,6.74
2023-04-19T17:15:45.053Z,6.70
2023-04-19T17:18:27.858Z,6.68
2023-04-19T17:21:12.960Z,6.66
2023-04-19T17:23:57.120Z,6.61
2023-04-19T17:26:39.962Z,6.58
2023-04-19T17:29:22.714Z,6.56
2023-04-19T17:32:06.008Z,6.48
2023-04-19T17:34:48.771Z,6.41
2023-04-19T17:37:31.773Z,6.39
2023-04-19T17:40:16.040Z,6.40
2023-04-19T17:42:58.834Z,6.37
2023-04-19T17:45:41.645Z,6.35
2023-04-19T17:48:24.528Z,6.28
2023-04-19T17:51:08.066Z,6.14
2023-04-19T17:53:51.537Z,6.07
2023-04-19T17:56:35.713Z,5.99
2023-04-19T17:59:18.584Z,5.89
2023-04-19T18:02:02.452Z,5.81
2023-04-19T18:04:45.596Z,5.66
2023-04-19T18:07:28.509Z,5.60
2023-04-19T18:10:11.948Z,5.58
2023-04-19T18:12:56.073Z,5.54
2023-04-19T18:15:38.885Z,5.51
2023-04-19T18:18:21.685Z,5.47
2023-04-19T18:21:05.814Z,5.43
2023-04-19T18:23:48.609Z,5.40
2023-04-19T18:26:38.188Z,5.38
2023-04-19T18:29:24.254Z,5.38
2023-04-19T18:32:07.195Z,5.33
2023-04-19T18:34:50.045Z,5.29
2023-04-19T18:37:32.833Z,5.24
2023-04-19T18:40:15.978Z,5.20
2023-04-19T18:42:58.814Z,5.17
2023-04-19T18:45:42.978Z,5.15
2023-04-19T18:48:28.372Z,5.07
2023-04-19T18:51:11.585Z,5.02
2023-04-19T18:53:54.417Z,4.98
2023-04-19T18:59:22.896Z,4.95
2023-04-19T19:02:08.724Z,4.93
2023-04-19T19:04:57.881Z,4.90
2023-04-19T19:07:43.799Z,4.89
2023-04-19T19:13:16.982Z,4.85
2023-04-19T19:15:59.863Z,4.78
2023-04-19T19:18:44.051Z,4.74
2023-04-19T19:21:27.451Z,4.71
2023-04-19T19:24:10.335Z,4.69
2023-04-19T19:26:53.116Z,4.68
2023-04-19T19:29:36.442Z,4.66
2023-04-19T19:32:19.539Z,4.64
2023-04-19T19:35:08.077Z,4.64
2023-04-19T19:37:51.127Z,4.62
2023-04-19T19:40:33.971Z,4.62
2023-04-19T19:43:16.840Z,4.61
2023-04-19T19:46:01.415Z,4.56
2023-04-19T19:48:44.096Z,4.40
2023-04-19T19:51:53.324Z,4.31
2023-04-19T19:54:31.216Z,4.21
2023-04-19T19:57:48.424Z,4.16
2023-04-19T20:00:41.985Z,4.14
2023-04-19T20:03:35.591Z,4.13
2023-04-19T20:07:07.791Z,4.10
2023-04-19T20:09:24.307Z,4.10
2023-04-19T20:12:07.953Z,4.09
2023-04-19T20:14:50.745Z,4.08
2023-04-19T20:17:33.562Z,4.09
2023-04-19T20:20:16.360Z,4.08
2023-04-19T20:22:59.214Z,4.05
2023-04-19T20:25:43.320Z,4.07
2023-04-19T20:28:26.526Z,4.07
2023-04-19T20:31:09.300Z,4.10
2023-04-19T20:33:52.793Z,4.13
2023-04-19T20:36:35.628Z,4.13
2023-04-19T20:39:19.117Z,4.10
2023-04-19T20:42:04.680Z,4.10
2023-04-19T20:44:47.478Z,4.10
2023-04-19T20:47:32.083Z,4.11
2023-04-19T20:50:15.351Z,4.11
2023-04-19T20:52:58.153Z,4.11
2023-04-19T20:55:42.183Z,4.07
2023-04-19T20:58:26.466Z,4.07
2023-04-19T21:01:09.834Z,4.07
2023-04-19T21:03:52.881Z,4.07
2023-04-19T21:06:36.052Z,4.06
2023-04-19T21:09:19.083Z,4.06
2023-04-19T21:12:02.831Z,4.05
2023-04-19T21:14:49.272Z,4.02
2023-04-19T21:17:32.426Z,4.02
2023-04-19T21:20:18.002Z,4.00
2023-04-19T21:23:02.007Z,3.96
2023-04-19T21:25:44.840Z,3.97
2023-04-19T21:28:27.789Z,3.95
2023-04-19T21:31:12.058Z,3.94
2023-04-19T21:33:54.854Z,3.95
2023-04-19T21:36:37.640Z,3.95
2023-04-19T21:39:20.435Z,3.93
2023-04-19T21:42:03.181Z,3.92
2023-04-19T21:44:46.076Z,3.89
2023-04-19T21:47:30.243Z,3.89
2023-04-19T21:50:13.105Z,3.86
2023-04-19T21:52:55.914Z,3.84
2023-04-19T21:55:38.741Z,3.83
2023-04-19T21:58:21.491Z,3.84
2023-04-19T22:01:04.422Z,3.83
2023-04-19T22:03:48.929Z,3.82
2023-04-19T22:06:32.925Z,3.78
2023-04-19T22:09:16.007Z,3.76
2023-04-19T22:12:00.019Z,3.67
2023-04-19T22:14:42.880Z,3.56
2023-04-19T22:17:26.255Z,3.47
2023-04-19T22:20:12.826Z,3.40
2023-04-19T22:22:56.572Z,3.34
2023-04-19T22:25:39.489Z,3.17
2023-04-19T22:28:22.252Z,2.97
2023-04-19T22:31:05.091Z,2.83
2023-04-19T22:33:47.899Z,2.73
2023-04-19T22:36:32.058Z,2.73
2023-04-19T22:39:15.864Z,2.74
2023-04-19T22:41:58.914Z,2.77
2023-04-19T22:44:41.697Z,2.78
2023-04-19T22:47:24.478Z,2.81
2023-04-19T22:50:08.889Z,2.81
2023-04-19T22:52:53.053Z,2.81
2023-04-19T22:55:35.866Z,2.80
2023-04-19T22:58:20.746Z,2.80
2023-04-19T23:01:04.219Z,2.80
2023-04-19T23:03:46.977Z,2.74
2023-04-19T23:06:30.285Z,2.75
2023-04-19T23:09:14.557Z,2.74
2023-04-19T23:11:58.648Z,2.73
2023-04-19T23:14:41.822Z,2.70
2023-04-19T23:17:25.111Z,2.69
2023-04-19T23:20:10.859Z,2.68
2023-04-19T23:22:53.644Z,2.67
2023-04-19T23:25:37.922Z,2.68
2023-04-19T23:28:20.724Z,2.69
2023-04-19T23:31:03.550Z,2.63
2023-04-19T23:33:46.347Z,2.60
2023-04-19T23:36:29.180Z,2.59
2023-04-19T23:39:11.978Z,2.58
2023-04-19T23:41:56.422Z,2.57
2023-04-19T23:44:39.674Z,2.57
2023-04-19T23:47:23.171Z,2.58
2023-04-19T23:50:06.783Z,2.58
2023-04-19T23:52:49.579Z,2.58
2023-04-19T23:55:32.704Z,2.63
2023-04-19T23:58:16.890Z,2.63
